createdAt,value
2022-11-02T00:01:26.917Z,1.10
2022-11-02T00:03:56.240Z,1.00
2022-11-02T00:06:24.112Z,0.90
2022-11-02T00:08:51.818Z,0.87
2022-11-02T00:11:19.536Z,1.00
2022-11-02T00:13:47.263Z,1.00
2022-11-02T00:16:19.291Z,1.17
2022-11-02T00:18:50.264Z,0.50
2022-11-02T00:21:20.556Z,0.53
2022-11-02T00:23:49.693Z,0.40
2022-11-02T00:26:18.323Z,0.40
2022-11-02T00:28:46.144Z,1.00
2022-11-02T00:31:13.837Z,0.43
2022-11-02T00:33:41.553Z,0.30
2022-11-02T00:36:10.000Z,0.50
2022-11-02T00:38:39.051Z,0.77
2022-11-02T00:41:07.365Z,0.60
2022-11-02T00:43:35.024Z,0.40
2022-11-02T00:46:02.717Z,0.50
2022-11-02T00:48:30.460Z,0.30
2022-11-02T00:50:58.091Z,0.50
2022-11-02T00:53:25.792Z,0.50
2022-11-02T00:55:55.002Z,0.50
2022-11-02T00:58:30.449Z,0.87
2022-11-02T01:00:58.175Z,0.50
2022-11-02T01:03:26.009Z,0.57
2022-11-02T01:05:53.673Z,0.70
2022-11-02T01:08:21.341Z,0.70
2022-11-02T01:10:49.159Z,0.80
2022-11-02T01:13:16.921Z,0.60
2022-11-02T01:15:46.052Z,0.50
2022-11-02T01:18:13.702Z,0.43
2022-11-02T01:20:41.360Z,0.87
2022-11-02T01:23:09.079Z,0.70
2022-11-02T01:25:36.817Z,0.60
2022-11-02T01:28:04.811Z,0.93
2022-11-02T01:30:33.026Z,0.77
2022-11-02T01:33:02.082Z,0.70
2022-11-02T01:35:29.807Z,0.80
2022-11-02T01:37:57.599Z,0.90
2022-11-02T01:40:25.895Z,0.57
2022-11-02T01:42:54.678Z,0.63
2022-11-02T01:45:22.585Z,0.63
2022-11-02T01:47:50.384Z,0.80
2022-11-02T01:50:24.916Z,1.07
2022-11-02T01:52:53.077Z,0.70
2022-11-02T01:55:23.774Z,0.90
2022-11-02T01:57:56.915Z,0.67
2022-11-02T02:00:24.775Z,0.53
2022-11-02T02:02:56.597Z,0.80
2022-11-02T02:05:26.624Z,0.97
2022-11-02T02:07:56.425Z,0.87
2022-11-02T02:10:24.060Z,0.80
2022-11-02T02:12:51.952Z,0.80
2022-11-02T02:15:25.318Z,1.00
2022-11-02T02:18:00.495Z,1.00
2022-11-02T02:20:47.961Z,0.80
2022-11-02T02:23:44.014Z,0.80
2022-11-02T02:26:42.895Z,0.93
2022-11-02T02:29:20.253Z,0.70
2022-11-02T02:31:55.235Z,0.80
2022-11-02T02:34:27.546Z,0.90
2022-11-02T02:37:02.104Z,1.00
2022-11-02T02:39:37.441Z,0.80
2022-11-02T02:42:13.297Z,1.10
2022-11-02T02:44:47.629Z,1.10
2022-11-02T02:47:19.456Z,1.40
2022-11-02T02:49:52.416Z,1.00
2022-11-02T02:52:23.510Z,1.03
2022-11-02T02:54:53.454Z,0.90
2022-11-02T02:57:24.471Z,1.00
2022-11-02T02:59:55.063Z,0.70
2022-11-02T03:02:26.078Z,1.20
2022-11-02T03:04:54.381Z,0.80
2022-11-02T03:07:31.037Z,1.27
2022-11-02T03:10:08.987Z,1.17
2022-11-02T03:12:46.580Z,1.10
2022-11-02T03:15:21.659Z,1.10
2022-11-02T03:18:03.583Z,1.30
2022-11-02T03:20:41.519Z,1.13
2022-11-02T03:23:15.024Z,1.30
2022-11-02T03:25:54.285Z,1.00
2022-11-02T03:28:31.880Z,1.20
2022-11-02T03:31:09.493Z,1.53
2022-11-02T03:33:45.071Z,1.50
2022-11-02T03:36:20.854Z,1.73
2022-11-02T03:38:53.345Z,1.50
2022-11-02T03:41:24.170Z,1.30
2022-11-02T03:43:58.213Z,1.33
2022-11-02T03:46:31.041Z,1.20
2022-11-02T03:48:58.875Z,0.97
2022-11-02T03:51:30.591Z,1.20
2022-11-02T03:54:06.736Z,1.30
2022-11-02T03:56:39.025Z,1.53
2022-11-02T03:59:06.880Z,1.73
2022-11-02T04:01:43.180Z,1.93
2022-11-02T04:04:12.028Z,1.93
2022-11-02T04:06:40.652Z,1.30
2022-11-02T04:09:08.616Z,1.33
2022-11-02T04:11:54.895Z,1.30
2022-11-02T04:14:41.353Z,1.43
2022-11-02T04:19:58.684Z,1.37
2022-11-02T04:22:43.753Z,0.97
2022-11-02T04:25:19.293Z,1.03
2022-11-02T04:27:48.925Z,0.73
2022-11-02T04:30:18.660Z,0.80
2022-11-02T04:33:06.774Z,0.93
2022-11-02T04:35:35.850Z,0.80
2022-11-02T04:38:21.486Z,1.03
2022-11-02T04:40:51.038Z,1.60
2022-11-02T04:43:18.673Z,1.10
2022-11-02T04:45:46.407Z,1.27
2022-11-02T04:48:15.500Z,0.93
2022-11-02T04:50:43.199Z,0.90
2022-11-02T04:53:10.925Z,1.20
2022-11-02T04:55:38.728Z,1.23
2022-11-02T04:58:06.848Z,1.10
2022-11-02T05:00:34.812Z,0.97
2022-11-02T05:03:03.292Z,0.80
2022-11-02T05:05:34.237Z,1.13
2022-11-02T05:08:02.462Z,0.83
2022-11-02T05:10:30.535Z,1.17
2022-11-02T05:12:58.787Z,1.03
2022-11-02T05:15:26.576Z,0.80
2022-11-02T05:17:54.415Z,1.00
2022-11-02T05:20:22.235Z,0.80
2022-11-02T05:22:51.336Z,0.70
2022-11-02T05:25:19.156Z,0.93
2022-11-02T05:27:46.826Z,1.00
2022-11-02T05:30:15.160Z,1.00
2022-11-02T05:32:43.344Z,1.13
2022-11-02T05:35:11.129Z,0.73
2022-11-02T05:37:38.817Z,0.77
2022-11-02T05:40:09.393Z,0.87
2022-11-02T05:42:37.147Z,0.83
2022-11-02T05:45:05.431Z,0.80
2022-11-02T05:47:34.772Z,0.70
2022-11-02T05:50:02.533Z,0.77
2022-11-02T05:52:30.341Z,1.03
2022-11-02T05:54:58.008Z,1.20
2022-11-02T05:57:27.110Z,1.03
2022-11-02T05:59:54.934Z,1.10
2022-11-02T06:02:24.732Z,0.80
2022-11-02T06:04:53.420Z,1.10
2022-11-02T06:07:21.239Z,1.10
2022-11-02T06:09:49.167Z,0.90
2022-11-02T06:12:16.855Z,0.80
2022-11-02T06:14:45.925Z,0.97
2022-11-02T06:17:13.709Z,0.90
2022-11-02T06:19:41.435Z,1.00
2022-11-02T06:22:09.266Z,0.90
2022-11-02T06:24:36.992Z,0.90
2022-11-02T06:27:04.882Z,0.90
2022-11-02T06:29:32.850Z,0.87
2022-11-02T06:32:01.956Z,0.83
2022-11-02T06:34:29.884Z,1.07
2022-11-02T06:36:57.582Z,1.27
2022-11-02T06:39:25.318Z,0.90
2022-11-02T06:41:54.393Z,1.10
2022-11-02T06:44:22.138Z,0.93
2022-11-02T06:46:50.728Z,0.70
2022-11-02T06:49:20.029Z,1.30
2022-11-02T06:51:47.709Z,1.03
2022-11-02T06:54:15.552Z,0.90
2022-11-02T06:56:44.821Z,1.10
2022-11-02T06:59:12.485Z,1.10
2022-11-02T07:01:40.380Z,1.10
2022-11-02T07:04:08.244Z,0.80
2022-11-02T07:06:37.343Z,0.77
2022-11-02T07:09:05.234Z,0.70
2022-11-02T07:11:33.173Z,0.90
2022-11-02T07:14:00.932Z,1.00
2022-11-02T07:16:28.695Z,0.90
2022-11-02T07:18:56.421Z,1.00
2022-11-02T07:21:24.255Z,1.40
2022-11-02T07:23:53.411Z,1.03
2022-11-02T07:26:21.055Z,0.93
2022-11-02T07:28:48.853Z,0.83
2022-11-02T07:31:16.571Z,1.03
2022-11-02T07:33:44.297Z,1.20
2022-11-02T07:36:12.165Z,0.83
2022-11-02T07:38:39.832Z,0.80
2022-11-02T07:41:09.260Z,0.90
2022-11-02T07:43:41.283Z,0.83
2022-11-02T07:46:11.888Z,1.20
2022-11-02T07:48:39.664Z,0.80
2022-11-02T07:51:07.882Z,1.17
2022-11-02T07:53:35.919Z,0.93
2022-11-02T07:56:04.216Z,1.00
2022-11-02T07:58:33.651Z,0.83
2022-11-02T08:01:02.459Z,0.63
2022-11-02T08:03:30.765Z,1.23
2022-11-02T08:06:01.731Z,1.00
2022-11-02T08:08:29.621Z,1.20
2022-11-02T08:11:05.714Z,0.90
2022-11-02T08:13:36.116Z,0.90
2022-11-02T08:16:04.295Z,0.70
2022-11-02T08:18:32.803Z,0.90
2022-11-02T08:21:00.728Z,0.80
2022-11-02T08:23:28.760Z,0.70
2022-11-02T08:26:00.261Z,0.67
2022-11-02T08:28:31.058Z,0.77
2022-11-02T08:31:00.451Z,1.10
2022-11-02T08:33:28.439Z,0.90
2022-11-02T08:35:56.140Z,0.80
2022-11-02T08:38:24.083Z,0.73
2022-11-02T08:40:51.824Z,0.50
2022-11-02T08:43:19.532Z,0.80
2022-11-02T08:46:13.673Z,0.97
2022-11-02T08:48:37.169Z,0.50
2022-11-02T08:51:05.602Z,1.10
2022-11-02T08:53:33.491Z,0.80
2022-11-02T08:56:01.294Z,0.87
2022-11-02T08:58:29.122Z,0.93
2022-11-02T09:00:57.083Z,0.80
2022-11-02T09:03:27.287Z,0.80
2022-11-02T09:06:01.070Z,1.00
2022-11-02T09:08:29.668Z,1.10
2022-11-02T09:11:01.020Z,0.90
2022-11-02T09:13:29.381Z,1.03
2022-11-02T09:15:59.751Z,1.00
2022-11-02T09:18:27.760Z,0.87
2022-11-02T09:20:55.685Z,1.20
2022-11-02T09:23:25.127Z,0.70
2022-11-02T09:25:53.597Z,1.20
2022-11-02T09:28:21.315Z,1.10
2022-11-02T09:30:49.067Z,1.10
2022-11-02T09:33:17.026Z,0.90
2022-11-02T09:35:46.537Z,0.77
2022-11-02T09:38:16.000Z,0.93
2022-11-02T09:40:51.648Z,0.90
2022-11-02T09:43:31.897Z,1.30
2022-11-02T09:46:05.990Z,0.80
2022-11-02T09:48:38.051Z,0.87
2022-11-02T09:51:11.594Z,1.10
2022-11-02T09:53:47.645Z,0.93
2022-11-02T09:56:19.719Z,1.23
2022-11-02T09:58:54.438Z,1.10
2022-11-02T10:01:38.715Z,1.00
2022-11-02T10:04:34.018Z,1.20
2022-11-02T10:07:10.489Z,1.00
2022-11-02T10:09:50.607Z,1.00
2022-11-02T10:12:27.771Z,0.97
2022-11-02T10:15:03.271Z,1.07
2022-11-02T10:17:35.339Z,1.40
2022-11-02T10:20:08.680Z,1.20
2022-11-02T10:22:41.362Z,1.27
2022-11-02T10:25:15.955Z,0.87
2022-11-02T10:27:48.834Z,1.17
2022-11-02T10:30:19.333Z,1.23
2022-11-02T10:32:51.809Z,0.93
2022-11-02T10:35:51.529Z,1.30
2022-11-02T10:38:23.838Z,1.00
2022-11-02T10:41:12.666Z,1.30
2022-11-02T10:43:58.997Z,1.00
2022-11-02T10:46:42.933Z,1.13
2022-11-02T10:49:17.389Z,1.53
2022-11-02T10:51:45.134Z,1.07
2022-11-02T10:54:20.571Z,0.90
2022-11-02T10:56:53.165Z,1.13
2022-11-02T10:59:23.989Z,1.00
2022-11-02T11:02:07.000Z,1.20
2022-11-02T11:04:37.107Z,1.20
2022-11-02T11:07:14.114Z,1.40
2022-11-02T11:09:49.533Z,1.60
2022-11-02T11:12:22.394Z,1.20
2022-11-02T11:20:37.302Z,1.10
2022-11-02T11:23:26.631Z,1.03
2022-11-02T11:26:02.594Z,1.10
2022-11-02T11:28:32.991Z,1.70
2022-11-02T11:31:09.748Z,1.63
2022-11-02T11:33:51.606Z,1.20
2022-11-02T11:39:01.379Z,1.77
2022-11-02T11:41:30.509Z,1.27
2022-11-02T11:43:58.876Z,1.40
2022-11-02T11:46:40.413Z,1.30
2022-11-02T11:49:35.984Z,1.20
2022-11-02T11:52:20.831Z,1.17
2022-11-02T11:54:54.906Z,0.90
2022-11-02T11:57:28.226Z,1.40
2022-11-02T11:59:59.030Z,1.10
2022-11-02T12:02:31.088Z,0.93
2022-11-02T12:05:03.432Z,1.20
2022-11-02T12:07:56.937Z,0.90
2022-11-02T12:10:39.282Z,1.23
2022-11-02T12:13:17.139Z,1.03
2022-11-02T12:15:59.705Z,1.37
2022-11-02T12:18:38.977Z,1.37
2022-11-02T12:21:24.646Z,1.20
2022-11-02T12:24:08.764Z,1.23
2022-11-02T12:26:50.367Z,1.10
2022-11-02T12:29:37.357Z,1.17
2022-11-02T12:32:16.532Z,1.90
2022-11-02T12:38:01.628Z,0.97
2022-11-02T12:40:42.918Z,1.10
2022-11-02T12:43:26.131Z,1.30
2022-11-02T12:46:01.418Z,1.83
2022-11-02T12:48:43.310Z,1.33
2022-11-02T12:51:17.601Z,1.47
2022-11-02T12:53:50.118Z,1.07
2022-11-02T12:56:24.178Z,1.70
2022-11-02T12:58:53.255Z,1.70
2022-11-02T13:01:25.931Z,1.30
2022-11-02T13:04:00.202Z,1.20
2022-11-02T13:06:35.164Z,1.50
2022-11-02T13:09:08.293Z,1.23
2022-11-02T13:11:40.460Z,1.47
2022-11-02T13:14:15.667Z,1.27
2022-11-02T13:16:50.131Z,1.37
2022-11-02T13:19:22.034Z,1.37
2022-11-02T13:21:55.331Z,1.60
2022-11-02T13:24:28.115Z,1.57
2022-11-02T13:27:14.241Z,2.07
2022-11-02T13:29:51.226Z,1.83
2022-11-02T13:32:28.448Z,1.33
2022-11-02T13:35:05.883Z,2.30
2022-11-02T13:37:40.120Z,1.80
2022-11-02T13:40:16.623Z,1.90
2022-11-02T13:43:17.949Z,1.90
2022-11-02T13:46:07.160Z,1.90
2022-11-02T13:48:41.760Z,1.50
2022-11-02T13:51:17.558Z,1.37
2022-11-02T13:53:54.518Z,1.70
2022-11-02T13:56:25.396Z,1.47
2022-11-02T13:58:58.066Z,1.40
2022-11-02T14:01:28.435Z,1.60
2022-11-02T14:04:01.877Z,1.00
2022-11-02T14:06:33.300Z,1.30
2022-11-02T14:09:06.450Z,1.93
2022-11-02T14:11:38.084Z,1.87
2022-11-02T14:14:22.916Z,1.40
2022-11-02T14:17:13.998Z,1.27
2022-11-02T14:19:56.880Z,1.30
2022-11-02T14:22:25.252Z,1.33
2022-11-02T14:25:15.089Z,1.10
2022-11-02T14:27:43.612Z,1.13
2022-11-02T14:30:45.643Z,1.83
2022-11-02T14:33:32.878Z,1.47
2022-11-02T14:36:06.528Z,1.37
2022-11-02T14:38:58.165Z,1.17
2022-11-02T14:41:58.493Z,1.23
2022-11-02T14:44:42.117Z,1.63
2022-11-02T14:47:13.444Z,1.23
2022-11-02T14:49:49.575Z,1.00
2022-11-02T14:52:28.126Z,1.30
2022-11-02T14:55:02.280Z,1.40
2022-11-02T14:57:34.763Z,1.20
2022-11-02T15:00:18.232Z,1.10
2022-11-02T15:02:47.107Z,1.00
2022-11-02T15:05:24.102Z,1.67
2022-11-02T15:07:58.257Z,1.40
2022-11-02T15:10:46.071Z,1.23
2022-11-02T15:13:36.106Z,0.97
2022-11-02T15:16:26.546Z,1.30
2022-11-02T15:18:55.944Z,1.60
2022-11-02T15:21:30.045Z,1.30
2022-11-02T15:24:17.810Z,1.40
2022-11-02T15:26:52.337Z,1.10
2022-11-02T15:29:37.005Z,1.37
2022-11-02T15:32:10.311Z,1.10
2022-11-02T15:34:42.182Z,1.60
2022-11-02T15:37:17.769Z,1.13
2022-11-02T15:39:49.920Z,1.33
2022-11-02T15:42:28.313Z,1.20
2022-11-02T15:45:20.343Z,1.10
2022-11-02T15:48:06.052Z,0.97
2022-11-02T15:50:47.051Z,1.50
2022-11-02T15:53:27.973Z,1.23
2022-11-02T15:56:09.552Z,1.57
2022-11-02T15:58:49.757Z,1.63
2022-11-02T16:01:20.820Z,1.10
2022-11-02T16:03:58.216Z,0.87
2022-11-02T16:06:28.268Z,1.47
2022-11-02T16:08:58.557Z,1.60
2022-11-02T16:11:27.156Z,1.10
2022-11-02T16:14:09.618Z,1.77
2022-11-02T16:16:47.654Z,0.93
2022-11-02T16:19:21.283Z,1.10
2022-11-02T16:21:50.133Z,1.23
2022-11-02T16:24:18.404Z,1.30
2022-11-02T16:26:47.896Z,1.30
2022-11-02T16:29:26.283Z,1.20
2022-11-02T16:31:54.206Z,1.17
2022-11-02T16:34:32.236Z,0.97
2022-11-02T16:37:08.990Z,1.27
2022-11-02T16:39:42.197Z,1.27
2022-11-02T16:42:17.101Z,1.10
2022-11-02T16:44:56.652Z,1.27
2022-11-02T16:47:36.330Z,1.20
2022-11-02T16:50:19.674Z,1.10
2022-11-02T16:52:55.745Z,1.20
2022-11-02T16:55:44.288Z,1.20
2022-11-02T16:58:18.051Z,0.97
2022-11-02T17:00:58.132Z,1.43
2022-11-02T17:03:31.173Z,1.40
2022-11-02T17:06:03.577Z,0.93
2022-11-02T17:08:34.054Z,1.17
2022-11-02T17:11:04.205Z,1.17
2022-11-02T17:13:34.500Z,0.93
2022-11-02T17:16:06.999Z,1.30
2022-11-02T17:18:34.720Z,1.33
2022-11-02T17:21:25.448Z,1.10
2022-11-02T17:23:53.841Z,1.30
2022-11-02T17:26:37.443Z,1.13
2022-11-02T17:29:32.072Z,1.23
2022-11-02T17:32:01.511Z,1.20
2022-11-02T17:34:31.545Z,1.07
2022-11-02T17:37:00.643Z,1.30
2022-11-02T17:39:28.440Z,1.00
2022-11-02T17:42:14.954Z,1.30
2022-11-02T17:44:45.309Z,1.30
2022-11-02T17:47:14.301Z,1.30
2022-11-02T17:49:42.200Z,1.00
2022-11-02T17:52:16.362Z,1.67
2022-11-02T17:54:44.138Z,1.17
2022-11-02T17:57:13.938Z,1.00
2022-11-02T17:59:41.842Z,1.13
2022-11-02T18:02:13.671Z,1.40
2022-11-02T18:04:41.540Z,1.10
2022-11-02T18:07:09.464Z,0.77
2022-11-02T18:09:38.747Z,1.50
2022-11-02T18:12:06.756Z,1.17
2022-11-02T18:14:36.667Z,1.40
2022-11-02T18:17:04.447Z,1.13
2022-11-02T18:19:33.329Z,1.10
2022-11-02T18:22:01.250Z,1.23
2022-11-02T18:24:29.072Z,1.53
2022-11-02T18:26:58.097Z,0.90
2022-11-02T18:29:26.038Z,1.20
2022-11-02T18:31:53.852Z,1.10
2022-11-02T18:34:21.766Z,1.20
2022-11-02T18:36:49.706Z,1.10
2022-11-02T18:39:17.564Z,1.03
2022-11-02T18:41:45.562Z,0.90
2022-11-02T18:44:15.763Z,1.20
2022-11-02T18:46:44.235Z,0.93
2022-11-02T18:49:11.974Z,1.20
2022-11-02T18:51:43.207Z,1.63
2022-11-02T18:54:11.107Z,1.27
2022-11-02T18:56:39.086Z,1.27
2022-11-02T18:59:06.958Z,1.33
2022-11-02T19:01:36.162Z,1.30
2022-11-02T19:04:04.684Z,1.40
2022-11-02T19:06:52.469Z,1.20
2022-11-02T19:09:23.222Z,1.20
2022-11-02T19:11:56.562Z,1.13
2022-11-02T19:14:26.744Z,1.33
2022-11-02T19:16:55.878Z,1.17
2022-11-02T19:19:23.564Z,0.87
2022-11-02T19:21:51.225Z,1.13
2022-11-02T19:24:20.882Z,1.33
2022-11-02T19:26:48.650Z,1.40
2022-11-02T19:29:16.838Z,1.50
2022-11-02T19:31:45.218Z,1.40
2022-11-02T19:34:14.908Z,1.30
2022-11-02T19:36:42.774Z,1.40
2022-11-02T19:39:11.081Z,1.63
2022-11-02T19:41:39.581Z,1.13
2022-11-02T19:44:07.912Z,1.30
2022-11-02T19:46:35.905Z,1.40
2022-11-02T19:49:03.789Z,1.40
2022-11-02T19:51:33.032Z,1.13
2022-11-02T19:54:02.562Z,1.33
2022-11-02T19:56:32.113Z,1.23
2022-11-02T19:58:59.985Z,1.47
2022-11-02T20:01:29.843Z,1.37
2022-11-02T20:03:58.198Z,1.27
2022-11-02T20:06:27.955Z,1.60
2022-11-02T20:08:58.369Z,1.57
2022-11-02T20:11:28.455Z,1.23
2022-11-02T20:13:58.126Z,1.27
2022-11-02T20:16:26.536Z,1.67
2022-11-02T20:18:54.993Z,1.67
2022-11-02T20:21:29.839Z,1.10
2022-11-02T20:24:00.946Z,1.87
2022-11-02T20:26:31.158Z,1.30
2022-11-02T20:29:00.569Z,1.47
2022-11-02T20:31:30.294Z,1.23
2022-11-02T20:33:59.364Z,1.50
2022-11-02T20:36:27.781Z,1.17
2022-11-02T20:38:56.293Z,1.30
2022-11-02T20:41:26.503Z,2.00
2022-11-02T20:43:55.896Z,1.33
2022-11-02T20:46:42.159Z,1.60
2022-11-02T20:49:20.760Z,1.50
2022-11-02T20:51:50.621Z,1.17
2022-11-02T20:54:19.471Z,1.50
2022-11-02T20:56:49.645Z,1.53
2022-11-02T20:59:17.505Z,1.63
2022-11-02T21:01:45.790Z,1.73
2022-11-02T21:04:19.897Z,1.63
2022-11-02T21:06:48.993Z,1.93
2022-11-02T21:09:16.748Z,2.00
2022-11-02T21:12:00.980Z,1.43
2022-11-02T21:14:30.082Z,1.93
2022-11-02T21:16:57.761Z,1.60
2022-11-02T21:19:25.813Z,1.33
2022-11-02T21:21:59.170Z,1.80
2022-11-02T21:24:27.673Z,1.20
2022-11-02T21:26:55.456Z,1.60
2022-11-02T21:29:23.200Z,0.90
2022-11-02T21:31:52.250Z,1.60
2022-11-02T21:34:20.022Z,1.60
2022-11-02T21:36:48.371Z,2.07
2022-11-02T21:39:16.136Z,1.20
2022-11-02T21:41:43.878Z,1.83
2022-11-02T21:44:11.659Z,1.60
2022-11-02T21:46:39.414Z,1.67
2022-11-02T21:49:08.614Z,1.60
2022-11-02T21:51:38.344Z,2.20
2022-11-02T21:54:06.148Z,1.33
2022-11-02T21:56:35.850Z,1.60
2022-11-02T21:59:05.235Z,1.40
2022-11-02T22:01:48.928Z,1.70
2022-11-02T22:04:21.759Z,1.30
2022-11-02T22:06:49.563Z,1.60
2022-11-02T22:09:17.287Z,1.40
2022-11-02T22:11:45.337Z,0.97
2022-11-02T22:14:12.636Z,1.40
2022-11-02T22:16:41.670Z,1.70
2022-11-02T22:19:11.569Z,1.60
2022-11-02T22:21:42.499Z,1.90
2022-11-02T22:24:11.248Z,1.57
2022-11-02T22:26:40.094Z,1.67
2022-11-02T22:29:08.794Z,1.37
2022-11-02T22:31:38.838Z,1.10
2022-11-02T22:34:08.121Z,1.50
2022-11-02T22:36:36.827Z,1.27
2022-11-02T22:39:06.714Z,1.67
2022-11-02T22:41:37.129Z,1.30
2022-11-02T22:44:06.786Z,1.30
2022-11-02T22:46:36.540Z,1.17
2022-11-02T22:49:05.123Z,1.57
2022-11-02T22:51:35.205Z,1.27
2022-11-02T22:54:06.045Z,1.30
2022-11-02T22:56:35.962Z,1.53
2022-11-02T22:59:04.425Z,1.67
2022-11-02T23:01:33.207Z,1.20
2022-11-02T23:04:01.719Z,1.00
2022-11-02T23:06:30.160Z,1.20
2022-11-02T23:08:59.251Z,1.90
2022-11-02T23:11:30.499Z,1.90
2022-11-02T23:14:00.341Z,1.43
2022-11-02T23:16:29.625Z,1.57
2022-11-02T23:19:20.437Z,1.30
2022-11-02T23:22:08.866Z,1.30
2022-11-02T23:24:54.107Z,1.40
2022-11-02T23:27:23.364Z,1.50
2022-11-02T23:30:08.755Z,1.40
2022-11-02T23:32:37.340Z,1.53
2022-11-02T23:35:23.176Z,1.13
2022-11-02T23:37:50.918Z,1.30
2022-11-02T23:40:19.967Z,1.30
2022-11-02T23:42:49.047Z,1.07
2022-11-02T23:45:16.838Z,1.57
2022-11-02T23:48:01.242Z,1.33
2022-11-02T23:50:49.725Z,1.67
2022-11-02T23:53:37.384Z,1.40
2022-11-02T23:56:23.403Z,1.50
2022-11-02T23:59:06.727Z,1.53
